Date,TemperatureHighF,TemperatureAvgF,TemperatureLowF,DewpointHighF,DewpointAvgF,DewpointLowF,HumidityHigh,HumidityAvg,HumidityLow,PressureMaxIn,PressureMinIn,WindSpeedMaxMPH,WindSpeedAvgMPH,GustSpeedMaxMPH,PrecipitationSumIn
2013-1-1,47.1,37.5,30.4,32.0,28.0,21.0,88,70,48,30.27,30.20,3,0,4,0.00
2013-1-2,54.1,39.7,32.1,34.0,25.9,19.0,78,60,29,30.25,30.14,1,0,3,0.00
2013-1-3,52.3,40.1,32.2,33.0,28.9,24.0,79,65,44,30.26,30.16,5,0,5,0.00
2013-1-4,54.2,43.1,35.6,35.0,29.6,23.0,78,60,40,30.28,30.19,5,0,5,0.00
2013-1-5,52.3,43.0,37.8,38.0,33.1,24.0,83,69,34,30.25,30.07,2,0,6,0.00
2013-1-6,46.0,40.5,35.6,39.0,36.6,33.0,92,86,73,30.15,30.06,1,0,3,0.05
2013-1-7,52.8,42.6,34.4,40.0,34.9,30.0,90,75,55,30.22,30.12,2,0,4,0.01
2013-1-8,54.2,43.2,35.2,43.0,38.2,33.0,93,83,65,30.21,30.13,2,0,5,0.00
2013-1-9,50.4,44.0,32.9,41.0,37.1,31.0,92,77,56,30.17,29.85,7,1,10,0.59
2013-1-10,40.1,33.4,28.8,32.0,28.6,25.0,92,83,65,30.13,29.97,3,0,4,0.01
2013-1-11,41.2,32.0,25.7,28.0,24.5,19.0,89,75,46,30.22,30.13,2,0,5,0.00
2013-1-12,41.5,31.6,25.0,21.0,17.1,10.0,76,56,31,30.21,30.14,3,0,6,0.00
2013-1-13,41.2,31.6,23.9,19.0,12.7,4.0,74,48,25,30.25,30.16,3,0,9,0.00
2013-1-14,46.0,35.2,27.8,21.0,11.7,2.0,61,39,24,30.39,30.21,4,0,7,0.00
2013-1-15,46.4,35.8,28.7,29.0,23.4,18.0,76,62,42,30.48,30.38,3,0,4,0.00
2013-1-16,55.4,43.0,34.9,29.0,23.4,18.0,64,48,27,30.44,30.27,2,0,4,0.00
2013-1-17,62.6,47.4,37.3,35.0,23.0,12.0,53,40,22,30.28,30.17,2,0,4,0.00
2013-1-18,63.9,49.0,39.5,32.0,25.3,18.0,54,42,20,30.23,30.14,0,0,5,0.00
2013-1-19,62.9,48.3,37.6,33.0,26.6,19.0,56,45,24,30.25,30.16,0,0,4,0.00
2013-1-20,63.5,48.1,40.9,33.0,25.6,17.0,68,44,21,30.23,30.11,2,0,4,0.00
2013-1-21,62.6,49.6,39.1,32.0,25.1,17.0,63,40,22,30.17,30.11,1,0,5,0.00
2013-1-22,66.4,52.7,41.5,36.0,24.4,13.0,55,35,17,30.14,30.02,3,0,5,0.00
2013-1-23,63.1,54.5,47.4,45.0,27.3,15.0,86,41,20,30.05,29.96,4,0,5,0.05
2013-1-24,56.7,52.9,50.4,49.0,45.4,41.0,91,76,65,30.14,30.02,2,0,4,0.05
2013-1-25,60.7,53.3,50.1,54.0,49.8,48.0,95,88,73,30.14,30.00,5,0,5,0.10
2013-1-26,51.1,47.2,39.3,49.0,43.6,34.0,94,87,69,30.00,29.88,3,0,7,0.01
2013-1-27,46.0,39.0,33.4,38.0,33.8,28.0,92,82,58,30.11,29.95,2,0,4,0.09
2013-1-28,49.2,39.7,32.5,32.0,27.8,22.0,81,64,45,30.26,30.11,3,0,8,0.01
2013-1-29,52.3,43.0,33.8,37.0,33.2,29.0,83,69,51,30.32,30.23,2,0,5,0.00
2013-1-30,57.8,47.4,41.5,41.0,37.0,33.0,83,68,52,30.32,30.25,3,0,4,0.00
2013-1-31,61.5,47.9,38.5,43.0,37.6,32.0,86,69,41,30.29,30.18,2,0,5,0.00
2013-2-1,64.7,51.6,40.1,41.0,35.1,29.0,75,55,35,30.21,30.12,4,0,4,0.00
2013-2-2,64.2,51.4,43.9,43.0,36.4,30.0,70,59,28,30.26,30.18,3,0,5,0.00
2013-2-3,61.5,47.8,38.8,42.0,34.4,25.0,81,61,37,30.19,30.09,1,0,5,0.00
2013-2-4,62.4,50.0,40.9,42.0,32.9,22.0,75,54,28,30.14,30.03,3,0,4,0.00
2013-2-5,56.0,45.9,37.2,43.0,37.0,31.0,87,72,54,30.09,29.98,3,0,8,0.00
2013-2-6,54.1,43.1,32.7,36.0,30.7,25.0,90,65,33,30.14,30.07,2,0,4,0.00
2013-2-7,43.6,40.5,35.2,38.0,35.1,31.0,88,81,71,30.13,29.96,3,0,8,0.03
2013-2-8,48.8,37.9,29.0,31.0,24.2,16.0,88,62,28,29.95,29.89,3,0,10,0.00
2013-2-9,48.5,38.9,28.8,27.0,22.4,18.0,68,53,35,30.09,29.94,3,0,8,0.00
2013-2-10,54.1,41.6,32.1,35.0,24.3,17.0,74,53,25,30.10,30.00,4,0,8,0.00
2013-2-11,56.6,44.0,35.2,27.0,21.4,15.0,62,42,23,30.22,30.07,3,0,10,0.00
2013-2-12,54.2,43.0,34.4,34.0,29.6,22.0,77,60,43,30.35,30.22,1,0,7,0.00
2013-2-13,58.4,44.9,35.0,39.0,34.2,30.0,83,68,40,30.32,30.21,3,0,5,0.00
2013-2-14,65.6,53.9,42.8,41.0,33.3,21.0,65,47,31,30.23,30.15,2,0,6,0.00
2013-2-15,66.1,53.5,43.3,40.0,30.7,22.0,62,43,25,30.26,30.20,2,0,5,0.00
2013-2-16,65.0,52.7,42.8,38.0,31.3,22.0,68,46,25,30.24,30.00,2,0,5,0.00
2013-2-17,61.2,49.2,38.9,38.0,34.1,29.0,73,58,36,30.00,29.92,3,0,4,0.00
2013-2-18,57.0,45.9,38.9,40.0,34.7,31.0,81,66,46,29.96,29.84,5,1,10,0.00
2013-2-19,38.9,34.9,30.1,35.0,31.7,28.0,92,88,80,29.88,29.70,6,1,9,0.01
2013-2-20,52.2,38.6,28.2,35.0,29.1,26.0,92,72,39,30.02,29.78,2,0,8,0.00
2013-2-21,52.3,41.7,32.1,35.0,29.3,20.0,88,64,29,30.13,30.00,4,0,8,0.00
2013-2-22,54.2,44.6,34.0,36.0,29.9,24.0,72,58,36,30.21,30.13,3,0,5,0.00
2013-2-23,51.7,44.4,36.3,38.0,28.1,13.0,87,56,28,30.17,30.08,4,1,9,0.00
2013-2-24,60.2,44.5,32.5,28.0,19.9,10.0,64,40,16,30.23,30.14,3,0,6,0.00
2013-2-25,57.5,45.6,37.3,32.0,27.1,23.0,71,50,32,30.25,30.15,4,0,7,0.00
2013-2-26,62.9,48.7,36.9,29.0,16.6,7.0,70,31,13,30.19,30.10,4,0,10,0.00
2013-2-27,62.1,50.5,40.8,32.0,21.3,11.0,56,33,22,30.34,30.18,4,0,6,0.00
2013-2-28,64.8,52.0,41.9,39.0,32.1,23.0,73,49,24,30.40,30.32,2,0,6,0.00
2013-3-1,69.8,55.1,44.2,46.0,40.7,36.0,77,60,33,30.39,30.23,2,0,5,0.00
2013-3-2,67.9,58.5,48.0,42.0,37.4,33.0,74,47,28,30.24,30.03,3,0,5,0.00
2013-3-3,55.7,52.1,46.1,46.0,43.9,41.0,85,74,60,30.04,29.97,2,0,4,0.02
2013-3-4,62.3,50.7,40.6,45.0,41.0,35.0,86,71,41,30.08,29.99,3,0,7,0.00
2013-3-5,54.5,48.4,43.8,43.0,39.1,35.0,86,71,51,29.99,29.80,4,0,8,0.01
2013-3-6,46.1,41.4,37.2,40.0,36.5,33.0,92,83,67,30.03,29.80,9,1,14,0.01
2013-3-7,50.2,41.8,34.6,39.0,34.4,31.0,90,76,53,29.98,29.85,3,0,7,0.00
2013-3-8,56.7,45.6,34.3,38.0,33.8,29.0,88,66,37,29.98,29.79,3,0,6,0.01
2013-3-9,61.5,48.6,34.7,37.0,31.1,20.0,90,56,26,30.28,29.98,4,0,8,0.00
2013-3-10,60.7,50.1,37.9,41.0,30.8,15.0,81,50,26,30.30,30.23,3,0,6,0.00
2013-3-11,68.3,52.4,39.2,43.0,39.7,35.0,86,65,39,30.25,30.10,4,0,5,0.00
2013-3-12,70.6,56.7,43.6,47.0,43.2,38.0,84,63,40,30.13,30.05,2,0,6,0.00
2013-3-13,74.2,62.0,48.5,47.0,41.3,36.0,80,50,26,30.13,30.06,3,0,5,0.00
2013-3-14,73.7,63.1,53.2,48.0,40.5,30.0,66,45,27,30.09,30.04,3,0,7,0.00
2013-3-15,71.8,58.8,47.7,46.0,41.6,37.0,72,55,28,30.05,29.98,2,0,5,0.00
2013-3-16,69.3,56.8,46.1,47.0,36.6,25.0,73,50,20,30.03,29.96,3,0,7,0.00
2013-3-17,64.2,52.4,40.2,40.0,34.3,29.0,77,52,32,30.05,29.99,4,0,6,0.07
2013-3-18,66.8,54.1,42.8,39.0,33.6,25.0,69,48,23,30.06,30.00,2,0,5,0.00
2013-3-19,63.9,54.5,46.7,49.0,40.4,33.0,91,62,34,30.08,30.00,3,0,7,0.22
2013-3-20,51.4,49.2,47.0,49.0,46.9,45.0,94,91,88,30.08,30.02,4,0,11,1.16
2013-3-21,58.3,50.3,43.6,48.0,43.6,33.0,93,79,48,30.07,29.97,2,0,8,0.00
2013-3-22,59.0,47.9,35.6,40.0,24.4,11.0,83,43,15,30.04,29.96,4,0,9,0.00
2013-3-23,61.2,49.5,37.3,34.0,25.7,13.0,64,41,22,30.08,30.02,4,0,7,0.00
2013-3-24,67.4,53.2,41.2,39.0,33.1,29.0,70,49,27,30.06,29.94,3,0,5,0.00
2013-3-25,66.1,54.8,42.8,42.0,38.2,34.0,78,56,33,29.95,29.85,4,0,7,0.00
2013-3-26,64.8,53.9,44.2,44.0,40.1,38.0,82,61,39,29.92,29.86,4,0,7,0.00
2013-3-27,65.5,55.2,46.1,48.0,42.5,39.0,80,64,42,29.97,29.88,6,0,8,0.00
2013-3-28,59.0,53.1,49.5,51.0,45.2,43.0,84,75,62,30.07,29.96,2,0,4,0.02
2013-3-29,72.8,60.2,46.1,46.0,41.1,37.0,83,52,29,30.07,30.00,3,0,8,0.00
2013-3-30,71.6,60.9,50.4,49.0,44.8,42.0,81,57,34,30.01,29.92,3,0,7,0.01
2013-3-31,58.9,52.1,47.4,50.0,46.2,42.0,93,81,55,30.03,29.94,3,0,6,0.82
2013-4-1,59.8,51.2,45.4,47.0,44.2,42.0,92,78,58,30.12,30.01,3,0,6,0.02
2013-4-2,65.6,53.5,42.9,47.0,43.2,38.0,88,70,44,30.12,30.05,3,0,6,0.00
2013-4-3,70.8,57.6,46.0,53.0,47.9,43.0,91,72,44,30.10,29.95,3,0,6,0.00
2013-4-4,56.7,52.2,46.2,53.0,49.1,42.0,94,89,71,30.07,29.92,4,0,9,0.52
2013-4-5,59.6,52.6,48.5,50.0,47.1,44.0,94,83,60,30.12,30.06,4,0,6,0.02
2013-4-6,60.2,52.7,48.0,49.0,46.0,43.0,89,79,57,30.14,30.06,3,0,7,0.00
2013-4-7,60.7,52.5,43.5,49.0,45.7,41.0,90,78,58,30.09,29.73,5,1,10,0.06
2013-4-8,60.2,49.0,40.8,42.0,33.6,22.0,94,63,23,29.98,29.67,13,1,13,0.33
2013-4-9,71.3,53.5,37.6,36.0,27.8,17.0,73,41,13,30.10,29.97,4,0,16,0.00
2013-4-10,77.6,62.4,45.7,48.0,38.0,27.0,64,42,27,30.15,29.93,5,0,9,0.00
2013-4-11,71.1,60.2,50.2,51.0,43.3,33.0,83,57,26,29.94,29.77,2,0,7,0.00
2013-4-12,74.7,60.8,48.8,49.0,38.1,32.0,65,45,26,29.83,29.75,4,0,6,0.00
2013-4-13,73.0,61.2,48.2,48.0,40.9,36.0,72,49,30,29.81,29.74,4,0,7,0.00
2013-4-14,66.1,55.1,43.5,42.0,36.0,28.0,79,52,25,29.80,29.70,2,0,7,0.00
2013-4-15,56.0,47.1,38.0,42.0,35.2,27.0,90,66,36,29.85,29.73,3,0,7,0.00
2013-4-16,60.4,46.3,34.9,34.0,23.8,12.0,88,48,15,30.13,29.85,9,1,15,0.00
2013-4-17,65.3,49.2,36.2,26.0,20.2,12.0,63,35,13,30.22,30.13,4,0,9,0.00
2013-4-18,68.1,54.0,42.3,37.0,25.7,16.0,59,35,20,30.23,30.17,4,0,7,0.00
2013-4-19,73.3,59.6,47.0,43.0,37.1,30.0,67,46,26,30.20,30.03,2,0,7,0.00
2013-4-20,75.1,62.4,48.0,43.0,38.1,31.0,72,43,27,30.04,29.93,3,0,7,0.00
2013-4-21,77.9,63.9,49.8,47.0,40.5,35.0,71,46,25,29.98,29.91,3,0,5,0.00
2013-4-22,79.8,66.8,52.8,54.0,40.3,27.0,71,41,21,29.93,29.80,4,0,6,0.00
2013-4-23,79.0,66.0,54.7,40.0,26.9,15.0,55,24,13,29.85,29.79,4,0,6,0.00
2013-4-24,81.6,66.9,51.0,38.0,26.9,19.0,60,26,10,29.81,29.73,5,0,7,0.00
2013-4-25,70.9,59.4,46.5,48.0,40.5,22.0,79,51,27,30.03,29.79,2,0,6,0.00
2013-4-26,75.8,61.8,48.9,52.0,46.3,40.0,81,59,36,30.14,30.03,2,0,5,0.00
2013-4-27,81.1,66.1,52.2,55.0,48.9,44.0,79,57,33,30.14,30.00,2,0,5,0.00
2013-4-28,82.4,68.7,55.0,53.0,44.0,33.0,65,42,26,30.00,29.84,2,0,6,0.00
2013-4-29,82.0,69.0,56.5,54.0,47.1,40.0,75,49,24,29.84,29.70,2,0,7,0.00
2013-4-30,77.2,65.4,52.5,50.0,38.3,11.0,77,43,12,29.81,29.66,3,0,7,0.00
2013-5-1,83.8,69.7,52.2,34.0,18.6,6.0,36,15,8,30.06,29.81,4,0,8,0.00
2013-5-2,84.7,71.6,60.2,39.0,26.4,6.0,44,20,9,30.10,30.03,3,0,6,0.00
2013-5-3,83.8,69.8,55.6,47.0,40.8,36.0,57,37,19,30.03,29.76,2,0,7,0.00
2013-5-4,81.4,71.9,62.6,44.0,32.6,22.0,42,24,17,29.76,29.47,3,0,7,0.00
2013-5-5,67.6,59.2,49.1,47.0,41.7,31.0,75,54,30,29.76,29.46,3,0,7,0.00
2013-5-6,62.6,54.8,50.1,52.0,47.8,43.0,93,78,55,29.91,29.77,2,0,4,0.59
2013-5-7,57.2,53.9,51.9,52.0,50.6,49.0,94,88,81,29.98,29.90,1,0,3,0.12
2013-5-8,65.6,58.0,53.1,53.0,50.0,48.0,91,76,57,30.06,29.98,3,0,6,0.03
2013-5-9,72.5,61.6,49.9,56.0,52.1,48.0,94,73,48,30.07,30.00,3,0,5,0.00
2013-5-10,79.8,67.0,54.1,59.0,55.6,51.0,92,69,45,30.09,30.03,2,0,5,0.00
2013-5-11,84.9,72.0,59.0,61.0,56.3,51.0,82,60,35,30.06,29.99,2,0,4,0.00
2013-5-12,87.0,74.3,60.5,58.0,47.9,37.0,78,43,17,30.05,29.95,3,0,5,0.00
2013-5-13,88.4,73.7,60.9,49.0,41.5,31.0,66,35,14,29.99,29.86,3,0,5,0.00
2013-5-14,83.6,72.3,60.9,55.0,46.7,36.0,58,41,29,29.86,29.79,2,0,8,0.00
2013-5-15,74.6,65.6,55.9,51.0,45.3,40.0,73,49,31,29.91,29.81,4,0,7,0.00
2013-5-16,65.3,57.7,52.2,50.0,46.4,42.0,81,67,49,29.92,29.85,4,0,7,0.02
2013-5-17,67.9,56.9,46.2,46.0,42.2,39.0,88,61,37,30.00,29.87,3,0,7,0.00
2013-5-18,74.9,61.0,47.1,46.0,40.1,36.0,79,50,25,30.06,29.99,3,0,7,0.00
2013-5-19,78.8,66.5,53.1,46.0,40.4,28.0,73,41,25,30.04,29.92,3,0,8,0.00
2013-5-20,83.4,70.6,59.0,42.0,33.8,27.0,38,26,18,29.94,29.85,2,0,7,0.00
2013-5-21,75.3,65.5,52.3,45.0,37.4,30.0,71,37,20,29.86,29.76,4,1,8,0.00
2013-5-22,65.8,51.4,36.9,42.0,25.5,14.0,70,41,15,29.86,29.82,3,0,6,0.00
2013-5-23,68.1,54.3,39.9,40.0,30.4,22.0,62,42,26,29.94,29.82,3,0,9,0.00
2013-5-24,73.5,58.9,44.3,38.0,34.1,29.0,73,43,22,29.93,29.86,4,0,8,0.00
2013-5-25,72.1,61.3,49.9,43.0,37.2,31.0,64,43,23,29.93,29.86,3,0,8,0.00
2013-5-26,71.1,58.5,47.0,48.0,43.4,37.0,84,59,35,30.04,29.91,4,0,7,0.00
2013-5-27,59.6,54.6,47.9,51.0,46.7,42.0,92,75,61,30.03,29.95,3,0,5,0.08
2013-5-28,71.3,59.4,51.6,55.0,50.1,46.0,95,74,46,29.95,29.85,4,0,5,0.13
2013-5-29,73.7,62.3,53.9,55.0,49.2,42.0,89,65,39,29.87,29.81,5,0,6,0.02
2013-5-30,78.8,66.2,53.2,50.0,43.0,33.0,78,47,24,29.92,29.84,4,0,9,0.00
2013-5-31,87.0,70.6,52.6,48.0,42.7,37.0,68,40,21,29.92,29.85,4,0,6,0.00
2013-6-1,90.1,74.9,59.8,50.0,43.0,32.0,52,34,19,29.85,29.71,3,0,5,0.00
2013-6-2,90.1,76.0,61.6,54.0,46.7,39.0,58,38,18,29.71,29.58,4,0,6,0.00
2013-6-3,90.3,76.6,62.6,55.0,49.1,40.0,62,40,22,29.70,29.60,3,0,7,0.00
2013-6-4,84.7,71.2,60.5,57.0,53.4,51.0,74,55,35,29.80,29.69,2,0,5,0.00
2013-6-5,86.3,73.0,59.2,59.0,56.2,54.0,87,59,35,29.86,29.79,4,0,5,0.00
2013-6-6,89.3,75.7,61.3,62.0,57.8,54.0,81,56,31,29.82,29.74,3,0,6,0.00
2013-6-7,101.2,80.5,64.0,60.0,51.7,42.0,78,41,16,29.78,29.67,3,0,4,0.00
2013-6-8,103.3,86.5,70.9,61.0,53.0,46.0,52,33,19,29.67,29.57,2,0,6,0.00
2013-6-9,83.2,74.7,63.1,60.0,54.7,50.0,66,51,38,29.74,29.60,4,0,9,0.00
2013-6-10,67.4,60.3,53.8,55.0,50.5,48.0,87,71,55,29.89,29.69,4,0,7,0.08
2013-6-11,80.5,67.0,53.1,53.0,50.0,47.0,87,58,33,29.93,29.84,4,0,8,0.00
2013-6-12,81.4,69.2,56.7,52.0,45.1,36.0,80,46,21,29.87,29.81,5,0,8,0.00
2013-6-13,78.8,65.7,50.5,44.0,37.4,27.0,69,39,16,29.98,29.86,4,0,7,0.00
2013-6-14,84.3,70.2,55.1,46.0,37.2,28.0,55,31,18,29.94,29.77,4,0,7,0.00
2013-6-15,84.7,71.3,57.5,47.0,38.8,25.0,64,35,12,29.87,29.75,5,0,7,0.00
2013-6-16,85.3,72.3,56.3,48.0,39.9,33.0,53,33,16,29.97,29.87,3,0,7,0.00
2013-6-17,82.6,69.7,56.6,49.0,43.5,38.0,65,42,22,29.96,29.89,5,0,7,0.00
2013-6-18,72.5,61.8,53.1,50.0,45.3,35.0,80,57,28,29.90,29.82,5,0,9,0.00
2013-6-19,73.0,60.4,45.7,44.0,38.4,27.0,84,49,20,29.96,29.87,4,0,8,0.00
2013-6-20,78.5,64.9,50.4,41.0,37.3,33.0,60,38,22,29.93,29.87,3,0,7,0.00
2013-6-21,82.4,68.4,53.8,44.0,39.2,36.0,57,37,21,29.89,29.84,3,0,9,0.00
2013-6-22,86.3,72.9,57.8,47.0,40.3,32.0,64,34,17,29.85,29.75,5,0,7,0.00
2013-6-23,70.4,64.7,59.2,56.0,48.4,38.0,84,57,34,29.75,29.67,4,0,8,0.00
2013-6-24,59.9,57.3,55.6,56.0,54.3,52.0,94,89,84,29.89,29.71,1,0,6,0.68
2013-6-25,64.7,60.5,55.4,62.0,58.5,54.0,95,93,88,29.97,29.86,4,0,9,0.53
2013-6-26,81.4,70.2,59.5,64.0,60.4,58.0,96,74,46,30.00,29.94,3,0,6,0.00
2013-6-27,90.7,75.7,61.3,64.0,59.8,54.0,91,63,30,30.01,29.96,4,0,5,0.00
2013-6-28,97.1,87.7,72.3,60.0,51.7,44.0,55,30,18,29.91,29.84,3,0,5,0.00
2013-6-29,100.2,84.7,68.9,60.0,55.1,47.0,65,39,18,29.86,29.73,4,0,5,0.00
2013-6-30,99.4,84.1,70.8,63.0,55.2,46.0,64,40,18,29.75,29.67,2,0,5,0.00
2013-7-1,100.7,85.7,70.4,66.0,57.0,47.0,65,41,20,29.77,29.69,3,0,6,0.00
2013-7-2,99.0,87.0,75.8,66.0,59.1,50.0,61,40,27,29.79,29.70,3,0,7,0.00
2013-7-3,99.7,87.1,72.0,67.0,60.8,56.0,70,44,24,29.79,29.67,1,0,6,0.00
2013-7-4,99.7,85.9,73.2,70.0,59.1,47.0,71,44,18,29.67,29.57,3,0,7,0.00
2013-7-5,89.3,79.5,67.9,56.0,48.9,39.0,59,36,20,29.63,29.54,3,0,7,0.00
2013-7-6,89.0,73.2,60.7,55.0,48.9,37.0,68,45,18,29.69,29.62,3,0,5,0.00
2013-7-7,90.3,76.1,60.5,54.0,47.1,41.0,68,40,19,29.76,29.68,4,0,7,0.00
2013-7-8,91.0,75.0,61.0,57.0,47.1,39.0,69,41,17,29.89,29.75,3,0,7,0.00
2013-7-9,96.6,79.0,62.4,51.0,41.8,32.0,56,31,11,29.96,29.88,3,0,6,0.00
2013-7-10,94.5,81.1,68.1,48.0,41.0,36.0,42,25,16,29.88,29.77,4,0,9,0.00
2013-7-11,92.1,76.7,62.6,50.0,38.0,30.0,53,27,13,29.81,29.75,3,0,7,0.00
2013-7-12,87.4,74.9,59.9,47.0,38.5,32.0,50,29,14,29.82,29.78,5,0,8,0.00
2013-7-13,91.0,76.3,59.8,48.0,41.0,35.0,53,31,15,29.87,29.81,7,0,8,0.00
2013-7-14,92.3,77.6,61.8,51.0,45.5,40.0,57,35,17,29.87,29.79,2,0,7,0.00
2013-7-15,89.0,75.0,64.2,54.0,45.2,35.0,59,37,21,29.80,29.70,3,0,5,0.00
2013-7-16,84.3,71.6,58.3,51.0,40.6,28.0,65,35,19,29.91,29.72,3,0,7,0.00
2013-7-17,88.4,72.8,56.3,50.0,43.9,39.0,69,39,19,29.98,29.91,3,0,7,0.00
2013-7-18,93.4,76.7,59.9,52.0,43.2,29.0,65,34,15,29.97,29.85,3,0,6,0.00
2013-7-19,96.3,79.8,64.7,54.0,46.7,42.0,57,34,16,29.85,29.72,2,0,6,0.00
2013-7-20,97.8,81.8,66.8,57.0,51.7,48.0,61,38,20,29.75,29.62,3,0,6,0.00
2013-7-21,97.5,83.1,69.9,61.0,51.6,39.0,63,36,19,29.77,29.65,3,0,6,0.00
2013-7-22,89.9,77.0,66.9,55.0,43.7,37.0,63,32,19,29.89,29.77,3,0,10,0.00
2013-7-23,89.9,77.3,65.0,51.0,45.3,36.0,51,33,20,29.90,29.81,4,0,9,0.00
2013-7-24,94.0,79.8,66.3,57.0,52.3,48.0,60,41,23,29.88,29.81,4,0,7,0.00
2013-7-25,96.3,82.8,70.1,61.0,55.7,52.0,63,42,24,29.88,29.81,3,0,6,0.00